Time;durP1;ratioP1;P1;durP2;ratioP2;P2;SDS_P1;SDS_P2;PMS_P1;PMS_P2;Temp;Humidity;BMP_temperature;BMP_pressure;BME280_temperature;BME280_humidity;BME280_pressure;Samples;Min_cycle;Max_cycle;Signal;HPM_P1;HPM_P2
2022/03/25 00:01:41;;;;;;;;;48.50;38.00;;;;;13.36;71.29;102198.84;4992697;28;45602;-81
2022/03/25 00:04:08;;;;;;;;;49.75;38.75;;;;;13.35;76.59;102198.94;4975114;28;45138;-82
2022/03/25 00:06:34;;;;;;;;;54.50;40.25;;;;;13.18;72.56;102176.16;4992674;28;45174;-81
2022/03/25 00:09:00;;;;;;;;;53.25;39.00;;;;;13.32;68.98;102207.28;4992965;28;45203;-77
2022/03/25 00:11:25;;;;;;;;;50.25;39.50;;;;;13.07;74.33;102175.84;4993057;28;45660;-78
2022/03/25 00:13:51;;;;;;;;;52.50;41.75;;;;;11.44;76.84;101883.69;4992951;28;45164;-76
2022/03/25 00:16:16;;;;;;;;;56.00;43.00;;;;;13.28;77.04;102206.59;4993816;28;45336;-78
2022/03/25 00:18:41;;;;;;;;;52.25;41.25;;;;;13.24;80.16;102200.41;4994040;28;45152;-79
2022/03/25 00:21:07;;;;;;;;;53.50;40.00;;;;;13.24;71.92;102205.00;5002458;28;46066;-78
2022/03/25 00:23:32;;;;;;;;;55.75;42.50;;;;;11.41;79.97;101899.34;5000979;28;45099;-77
2022/03/25 00:25:58;;;;;;;;;52.25;38.00;;;;;12.97;70.06;102169.09;4993833;28;45165;-77
2022/03/25 00:28:23;;;;;;;;;53.25;41.50;;;;;12.29;73.18;102062.72;4993472;28;45197;-78
2022/03/25 00:30:51;;;;;;;;;52.25;42.25;;;;;11.46;73.64;101907.28;4992274;28;47053;-77
2022/03/25 00:33:16;;;;;;;;;55.25;44.00;;;;;13.13;70.95;102202.81;4991180;28;45529;-78
2022/03/25 00:35:42;;;;;;;;;54.75;44.75;;;;;12.31;74.59;102057.19;4991703;28;45411;-77
2022/03/25 00:38:08;;;;;;;;;54.50;43.25;;;;;11.31;71.21;101884.44;4991869;28;45052;-77
2022/03/25 00:40:34;;;;;;;;;54.00;41.25;;;;;13.09;69.07;102201.22;4990661;28;45473;-76
2022/03/25 00:43:00;;;;;;;;;50.00;40.50;;;;;13.08;75.02;102198.59;4990970;28;45111;-76
2022/03/25 00:45:28;;;;;;;;;49.00;38.00;;;;;13.07;76.83;102197.69;4990469;28;45071;-76
2022/03/25 00:47:55;;;;;;;;;49.75;39.75;;;;;13.03;79.11;102184.28;4990466;28;45357;-76
2022/03/25 00:50:20;;;;;;;;;56.25;43.75;;;;;12.52;77.83;102110.63;4985334;28;45209;-77
2022/03/25 00:52:46;;;;;;;;;59.25;44.25;;;;;12.66;74.38;102157.13;4989014;28;45287;-78
2022/03/25 00:55:11;;;;;;;;;54.75;44.00;;;;;12.75;74.02;102160.34;4990589;28;45213;-76
2022/03/25 00:57:37;;;;;;;;;60.50;45.00;;;;;12.94;75.20;102199.31;4990169;28;45158;-76
2022/03/25 01:00:04;;;;;;;;;52.75;42.50;;;;;12.25;76.29;102082.06;4990150;28;45764;-76
2022/03/25 01:02:30;;;;;;;;;54.50;42.00;;;;;12.89;84.77;102198.69;4990960;28;45297;-76
2022/03/25 01:04:55;;;;;;;;;52.00;42.75;;;;;12.89;73.66;102198.69;4990431;28;45194;-76
2022/03/25 01:07:21;;;;;;;;;55.75;42.50;;;;;12.77;73.07;102191.13;4990380;28;45276;-75
2022/03/25 01:09:46;;;;;;;;;51.25;40.25;;;;;12.19;72.04;102097.78;4989738;28;45243;-77
2022/03/25 01:12:12;;;;;;;;;53.00;43.00;;;;;12.73;72.10;102177.69;4990182;28;45169;-76
2022/03/25 01:14:38;;;;;;;;;56.00;41.25;;;;;11.75;73.58;102009.22;4990225;28;45238;-77
2022/03/25 01:17:03;;;;;;;;;58.75;44.50;;;;;11.85;77.88;102052.31;4990391;28;45353;-76
2022/03/25 01:19:29;;;;;;;;;55.00;43.50;;;;;12.39;74.29;102129.47;4990586;28;46014;-75
2022/03/25 01:21:57;;;;;;;;;55.25;46.75;;;;;12.74;73.16;102184.00;4978089;28;45432;-75
2022/03/25 01:24:23;;;;;;;;;51.75;41.75;;;;;11.51;74.07;101982.31;4990008;28;45027;-77
2022/03/25 01:26:48;;;;;;;;;59.50;43.00;;;;;12.69;76.27;102183.38;4989812;28;45194;-76
2022/03/25 01:29:14;;;;;;;;;55.75;44.00;;;;;12.66;78.70;102178.94;4989543;28;45266;-76
2022/03/25 01:31:39;;;;;;;;;57.25;43.25;;;;;12.61;72.16;102169.25;4989956;28;45117;-76
2022/03/25 01:34:05;;;;;;;;;54.50;44.00;;;;;11.83;71.83;102037.00;4990246;28;45162;-74
2022/03/25 01:36:30;;;;;;;;;58.25;46.00;;;;;12.58;76.74;102174.88;4990156;28;45135;-76
2022/03/25 01:38:58;;;;;;;;;59.50;43.50;;;;;12.29;70.87;102121.84;4990084;28;45416;-75
2022/03/25 01:41:24;;;;;;;;;53.00;42.75;;;;;12.34;73.46;102134.28;4990182;28;45266;-75
2022/03/25 01:43:55;;;;;;;;;52.75;41.25;;;;;12.05;77.15;102083.97;4988807;28;45083;-76
2022/03/25 01:46:21;;;;;;;;;52.25;43.00;;;;;11.92;80.12;102067.41;4989393;28;45080;-76
2022/03/25 01:48:48;;;;;;;;;57.00;43.50;;;;;11.98;75.01;102085.28;4971800;28;46513;-78
2022/03/25 01:51:39;;;;;;;;;52.50;43.00;;;;;12.48;75.54;102169.03;4989906;28;45166;-77
2022/03/25 01:54:18;;;;;;;;;59.25;43.75;;;;;12.37;73.97;102149.63;4987500;28;45257;-76
2022/03/25 01:56:44;;;;;;;;;55.00;43.25;;;;;12.43;76.11;102165.66;4989675;28;45181;-77
2022/03/25 01:59:10;;;;;;;;;57.00;45.25;;;;;12.43;77.91;102171.09;4989367;28;45446;-78
2022/03/25 02:01:36;;;;;;;;;52.50;42.25;;;;;12.33;82.20;102159.78;4987880;28;45071;-78
2022/03/25 02:04:02;;;;;;;;;58.25;45.00;;;;;12.38;80.93;102171.34;4988970;28;45066;-78
2022/03/25 02:06:27;;;;;;;;;49.25;42.25;;;;;12.36;76.85;102161.47;4989414;28;45214;-77
2022/03/25 02:08:52;;;;;;;;;54.25;43.00;;;;;12.10;80.93;102125.50;4989437;28;45032;-75
2022/03/25 02:11:18;;;;;;;;;53.00;42.25;;;;;12.14;81.34;102153.50;4989758;28;45190;-77
2022/03/25 02:13:44;;;;;;;;;53.50;42.50;;;;;11.72;81.38;102069.34;4989885;28;45196;-74
2022/03/25 02:16:10;;;;;;;;;54.75;43.75;;;;;11.67;77.89;102055.97;4989116;28;45230;-76
2022/03/25 02:18:35;;;;;;;;;54.50;40.50;;;;;11.63;74.02;102057.94;4987376;28;45336;-75
2022/03/25 02:21:01;;;;;;;;;59.75;44.25;;;;;10.86;74.86;101926.63;4989224;28;45315;-75
2022/03/25 02:23:26;;;;;;;;;53.25;39.75;;;;;11.90;76.90;102109.31;4989492;28;44999;-76
2022/03/25 02:25:53;;;;;;;;;58.50;48.00;;;;;12.16;80.57;102159.75;4989715;28;45283;-76
2022/03/25 02:28:19;;;;;;;;;55.75;43.00;;;;;12.14;81.39;102165.31;4970760;28;47098;-75
2022/03/25 02:30:45;;;;;;;;;56.75;43.75;;;;;11.90;83.64;102129.25;4988376;28;45669;-77
2022/03/25 02:33:12;;;;;;;;;56.25;44.00;;;;;11.56;85.08;102070.13;4988974;28;45194;-76
2022/03/25 02:35:42;;;;;;;;;55.00;45.00;;;;;12.08;79.36;102156.56;4988768;28;45151;-76
2022/03/25 02:38:09;;;;;;;;;50.50;41.50;;;;;12.03;77.36;102164.09;4988701;28;45370;-76
2022/03/25 02:40:35;;;;;;;;;56.50;43.00;;;;;11.77;79.92;102124.50;4988512;28;45011;-77
2022/03/25 02:43:00;;;;;;;;;64.50;45.75;;;;;11.54;80.60;102082.03;4988630;28;45207;-77
2022/03/25 02:45:26;;;;;;;;;57.25;46.50;;;;;10.36;88.04;101898.22;4989897;28;45256;-75
2022/03/25 02:47:51;;;;;;;;;51.75;39.50;;;;;11.81;88.39;102153.31;4989208;28;45185;-75
2022/03/25 02:50:17;;;;;;;;;49.25;37.75;;;;;11.91;81.24;102168.28;4988990;28;46009;-76
2022/03/25 02:52:43;;;;;;;;;60.25;43.50;;;;;10.09;81.83;101859.63;4987109;28;45230;-76
2022/03/25 02:55:09;;;;;;;;;50.50;42.25;;;;;10.33;82.14;101900.19;4988459;28;45162;-76
2022/03/25 02:57:35;;;;;;;;;58.25;44.75;;;;;11.38;79.90;102099.13;4987739;28;45944;-76
2022/03/25 03:00:03;;;;;;;;;48.75;38.00;;;;;11.82;85.47;102163.31;4988535;28;45180;-76
2022/03/25 03:02:29;;;;;;;;;59.00;44.75;;;;;10.99;80.95;102033.00;4988285;28;45218;-75
2022/03/25 03:04:56;;;;;;;;;53.75;42.00;;;;;11.83;80.42;102168.69;4988598;28;45111;-76
2022/03/25 03:07:21;;;;;;;;;61.00;45.00;;;;;11.27;86.00;102077.00;4988423;28;46287;-76
2022/03/25 03:09:47;;;;;;;;;57.50;45.50;;;;;9.93;79.55;101857.66;4970639;28;45034;-77
2022/03/25 03:12:13;;;;;;;;;59.75;47.00;;;;;10.65;80.91;101992.00;4988630;28;45089;-78
2022/03/25 03:14:38;;;;;;;;;50.75;40.50;;;;;11.31;89.14;102100.41;4988343;28;45215;-76
2022/03/25 03:17:04;;;;;;;;;53.25;43.75;;;;;11.73;85.64;102177.38;4988212;28;45294;-77
2022/03/25 03:19:31;;;;;;;;;57.75;42.50;;;;;11.33;84.36;102117.53;4986941;28;45089;-78
2022/03/25 03:21:57;;;;;;;;;56.50;45.75;;;;;10.69;81.92;102003.59;4987322;28;45421;-76
2022/03/25 03:24:23;;;;;;;;;55.00;42.25;;;;;11.29;84.25;102094.13;4992203;28;45441;-80
2022/03/25 03:26:52;;;;;;;;;52.25;43.50;;;;;11.73;83.10;102166.47;4993393;28;45161;-77
2022/03/25 03:29:18;;;;;;;;;53.75;42.50;;;;;11.72;87.29;102171.03;4990523;28;45528;-76
2022/03/25 03:31:43;;;;;;;;;54.25;43.25;;;;;10.46;85.68;101969.34;4991773;28;45279;-77
2022/03/25 03:34:08;;;;;;;;;50.50;42.75;;;;;11.72;88.19;102161.97;4993265;28;44976;-75
2022/03/25 03:36:34;;;;;;;;;54.00;43.25;;;;;11.73;84.16;102171.91;4998168;28;46387;-76
2022/03/25 03:38:59;;;;;;;;;54.00;39.25;;;;;10.49;81.95;101950.19;4999198;28;45041;-78
2022/03/25 03:41:25;;;;;;;;;52.00;40.75;;;;;11.46;81.54;102136.91;4976863;28;44936;-76
2022/03/25 03:43:51;;;;;;;;;57.25;44.75;;;;;9.74;87.91;101822.34;4991802;28;45288;-77
2022/03/25 03:46:16;;;;;;;;;45.25;37.75;;;;;11.22;90.10;102076.34;4994418;28;45438;-77
2022/03/25 03:48:41;;;;;;;;;53.50;42.25;;;;;11.28;85.14;102088.78;4989732;28;45169;-75
2022/03/25 03:51:07;;;;;;;;;50.25;36.75;;;;;10.31;89.20;101938.31;4988609;28;45113;-76
2022/03/25 03:53:32;;;;;;;;;53.00;43.50;;;;;11.00;85.08;102045.66;4988050;28;45307;-77
2022/03/25 03:55:57;;;;;;;;;55.00;43.00;;;;;10.64;82.07;101989.31;4987525;28;45491;-78
2022/03/25 03:58:23;;;;;;;;;56.50;44.00;;;;;11.16;87.15;102104.75;4969354;28;45031;-78
2022/03/25 04:00:49;;;;;;;;;53.50;42.50;;;;;10.59;83.45;102002.25;4987792;28;45177;-78
2022/03/25 04:03:16;;;;;;;;;54.75;42.00;;;;;10.60;83.13;101990.44;4987703;28;45220;-82
2022/03/25 04:05:42;;;;;;;;;55.50;42.25;;;;;11.54;95.88;102159.19;4969312;28;46166;-78
2022/03/25 04:08:08;;;;;;;;;52.25;42.50;;;;;11.52;84.92;102152.94;4988128;28;45121;-77
2022/03/25 04:10:33;;;;;;;;;57.50;43.00;;;;;11.16;85.66;102101.16;4987725;28;45196;-82
2022/03/25 04:12:59;;;;;;;;;53.00;42.75;;;;;9.52;87.75;101836.00;4988650;28;45258;-83
2022/03/25 04:15:24;;;;;;;;;54.75;42.00;;;;;11.47;92.53;102165.00;4987383;28;45781;-82
2022/03/25 04:17:49;;;;;;;;;52.25;42.00;;;;;11.46;92.94;102169.59;4970227;28;44988;-77
2022/03/25 04:20:15;;;;;;;;;56.75;44.00;;;;;9.49;89.95;101823.47;4986533;28;44995;-81
2022/03/25 04:22:45;;;;;;;;;55.75;42.25;;;;;9.40;89.89;101809.44;4986928;28;45051;-77
2022/03/25 04:25:11;;;;;;;;;59.50;43.25;;;;;11.46;90.39;102176.88;4987687;28;45614;-80
2022/03/25 04:27:57;;;;;;;;;45.25;37.75;;;;;11.07;95.53;102104.28;4987437;28;45189;-83
2022/03/25 04:30:27;;;;;;;;;59.50;44.25;;;;;10.54;92.83;102026.06;4987333;28;45039;-78
2022/03/25 04:32:53;;;;;;;;;54.00;41.00;;;;;11.41;88.22;102166.19;4986482;28;45275;-80
2022/03/25 04:35:20;;;;;;;;;57.25;44.75;;;;;11.15;90.93;102127.47;4986776;28;45655;-77
2022/03/25 04:37:46;;;;;;;;;26.50;13.50;;;;;11.24;92.13;102137.03;4986923;28;44947;-82
2022/03/25 04:40:17;;;;;;;;;53.50;41.00;;;;;11.39;88.98;102168.97;4987408;28;45143;-81
2022/03/25 04:42:45;;;;;;;;;54.75;45.25;;;;;10.98;89.15;102113.75;4990212;28;45110;-78
2022/03/25 04:45:11;;;;;;;;;56.00;44.25;;;;;11.01;87.91;102107.31;4989951;28;45318;-82
2022/03/25 04:47:37;;;;;;;;;55.25;43.00;;;;;10.58;88.72;102063.94;4991290;28;45171;-78
2022/03/25 04:50:03;;;;;;;;;52.50;43.25;;;;;10.09;87.78;101962.88;4991317;28;45161;-78
2022/03/25 04:52:28;;;;;;;;;54.25;41.75;;;;;10.34;88.04;102011.59;4990562;28;45193;-76
2022/03/25 04:54:54;;;;;;;;;54.25;43.00;;;;;11.28;92.37;102179.50;4989517;28;45152;-76
2022/03/25 04:57:19;;;;;;;;;52.00;40.00;;;;;11.28;87.17;102184.06;4990311;28;44958;-76
2022/03/25 04:59:45;;;;;;;;;53.25;44.75;;;;;10.96;89.45;102144.75;4989505;28;45165;-77
2022/03/25 05:02:10;;;;;;;;;55.00;43.50;;;;;11.21;90.51;102186.19;4988180;28;45560;-76
2022/03/25 05:04:35;;;;;;;;;58.00;44.25;;;;;10.61;90.36;102096.44;4989431;28;46219;-76
2022/03/25 05:07:01;;;;;;;;;54.25;42.25;;;;;11.19;94.19;102198.97;4990250;28;45050;-77
2022/03/25 05:09:27;;;;;;;;;56.00;44.75;;;;;11.18;91.21;102198.09;4972637;28;45295;-80
2022/03/25 05:11:53;;;;;;;;;57.50;43.25;;;;;9.61;92.39;101936.06;4990471;28;45000;-77
2022/03/25 05:14:18;;;;;;;;;53.25;41.25;;;;;10.80;93.30;102140.00;4971879;28;46253;-76
2022/03/25 05:16:43;;;;;;;;;51.25;38.75;;;;;10.81;94.37;102135.44;4989907;28;45069;-77
2022/03/25 05:19:12;;;;;;;;;54.75;44.25;;;;;9.84;90.19;101975.78;4990394;28;45391;-76
2022/03/25 05:21:37;;;;;;;;;57.25;45.50;;;;;10.20;93.54;102054.78;4972058;28;44985;-77
2022/03/25 05:24:03;;;;;;;;;58.25;44.50;;;;;11.07;89.46;102184.09;4989268;28;45695;-77
2022/03/25 05:26:28;;;;;;;;;55.00;39.75;;;;;10.02;94.26;102002.13;4990282;28;45315;-76
2022/03/25 05:28:53;;;;;;;;;53.75;41.25;;;;;11.02;93.06;102178.00;4989677;28;45112;-76
2022/03/25 05:31:19;;;;;;;;;59.75;45.00;;;;;10.50;99.77;102090.59;4989800;28;45338;-76
2022/03/25 05:33:44;;;;;;;;;57.00;46.25;;;;;10.45;91.44;102080.91;4989634;28;44940;-76
2022/03/25 05:36:10;;;;;;;;;58.00;45.00;;;;;11.10;91.40;102205.75;4988400;28;45333;-78
2022/03/25 05:38:35;;;;;;;;;62.25;47.25;;;;;11.10;94.49;102199.38;4990070;28;44991;-76
2022/03/25 05:41:01;;;;;;;;;59.75;43.75;;;;;10.57;95.39;102115.69;4990173;28;45168;-76
2022/03/25 05:43:26;;;;;;;;;54.25;43.75;;;;;11.08;93.66;102202.19;4983178;28;45581;-76
2022/03/25 05:45:51;;;;;;;;;58.00;43.00;;;;;11.08;93.14;102195.88;4989791;28;45249;-76
2022/03/25 05:48:17;;;;;;;;;43.00;35.00;;;;;9.46;98.54;101926.75;4986841;28;45379;-77
2022/03/25 05:50:42;;;;;;;;;53.25;44.00;;;;;10.97;90.51;102190.94;4988710;28;45162;-78
2022/03/25 05:53:08;;;;;;;;;54.25;43.75;;;;;10.02;96.69;102045.59;4971382;28;47792;-77
2022/03/25 05:55:33;;;;;;;;;57.25;44.50;;;;;10.19;92.21;102077.47;4971581;28;45380;-77
2022/03/25 05:57:59;;;;;;;;;64.00;46.50;;;;;10.37;93.22;102102.97;4989892;28;45197;-77
2022/03/25 06:00:25;;;;;;;;;58.50;47.00;;;;;11.01;94.67;102208.00;4987585;28;45536;-77
2022/03/25 06:02:50;;;;;;;;;57.25;45.75;;;;;11.00;92.27;102212.56;4973080;28;47650;-76
2022/03/25 06:05:16;;;;;;;;;55.00;43.75;;;;;10.14;93.69;102088.53;4989078;28;45519;-77
2022/03/25 06:07:43;;;;;;;;;57.25;48.25;;;;;10.80;94.04;102183.53;4985020;28;45089;-76
2022/03/25 06:10:10;;;;;;;;;61.50;46.00;;;;;10.98;93.57;102225.34;4989851;28;44984;-76
2022/03/25 06:12:37;;;;;;;;;54.50;45.00;;;;;10.59;96.42;102160.00;4988850;28;45109;-77
2022/03/25 06:15:03;;;;;;;;;51.50;42.50;;;;;10.20;94.62;102083.78;4987920;28;45181;-80
2022/03/25 06:17:29;;;;;;;;;56.75;43.50;;;;;10.35;92.86;102118.47;4984554;28;45496;-77
2022/03/25 06:19:55;;;;;;;;;56.50;44.25;;;;;10.68;93.49;102183.19;4988874;28;45145;-76
2022/03/25 06:22:20;;;;;;;;;60.75;46.00;;;;;10.70;93.97;102194.91;4988567;28;45692;-78
2022/03/25 06:24:45;;;;;;;;;60.50;43.50;;;;;9.27;95.55;101959.22;4987302;28;45371;-77
2022/03/25 06:27:11;;;;;;;;;63.25;46.50;;;;;10.70;94.16;102206.66;4988978;28;45396;-80
2022/03/25 06:29:40;;;;;;;;;56.50;42.25;;;;;9.81;96.24;102062.81;4990093;28;45142;-81
2022/03/25 06:32:07;;;;;;;;;61.25;45.75;;;;;8.86;93.90;101894.97;4985034;28;45782;-78
2022/03/25 06:34:33;;;;;;;;;57.75;46.75;;;;;9.98;93.23;102106.44;4988115;28;45092;-80
2022/03/25 06:36:58;;;;;;;;;57.75;46.50;;;;;10.83;92.30;102245.94;4988736;28;45245;-83
2022/03/25 06:39:23;;;;;;;;;60.75;46.00;;;;;10.35;93.56;102148.38;4988891;28;45138;-78
2022/03/25 06:41:49;;;;;;;;;62.50;44.75;;;;;10.55;96.17;102180.13;4988581;28;45684;-81
2022/03/25 06:44:14;;;;;;;;;58.75;47.00;;;;;9.00;95.95;101934.13;4988937;28;46200;-77
2022/03/25 06:46:39;;;;;;;;;62.50;44.25;;;;;10.43;99.96;102170.66;4989274;28;45019;-80
2022/03/25 06:49:06;;;;;;;;;58.75;47.00;;;;;10.89;96.48;102252.97;5001640;28;44827;-79
2022/03/25 06:51:31;;;;;;;;;62.50;47.25;;;;;10.88;93.46;102254.78;4994850;28;47058;-78
2022/03/25 06:53:57;;;;;;;;;61.00;47.25;;;;;9.99;94.59;102100.09;4989991;28;45469;-79
2022/03/25 06:56:23;;;;;;;;;60.25;45.25;;;;;10.08;95.18;102121.41;4987552;28;45481;-78
2022/03/25 06:58:48;;;;;;;;;60.75;47.25;;;;;10.85;94.92;102246.78;4988995;28;45153;-78
2022/03/25 07:01:14;;;;;;;;;57.75;46.50;;;;;9.08;95.56;101961.84;4989536;28;45285;-79
2022/03/25 07:03:40;;;;;;;;;57.50;44.50;;;;;10.80;96.58;102239.78;4969712;28;45000;-78
2022/03/25 07:06:08;;;;;;;;;60.25;46.75;;;;;10.92;98.30;102255.56;4988805;28;45157;-79
2022/03/25 07:08:34;;;;;;;;;53.25;43.50;;;;;10.89;95.33;102250.22;4988848;28;45141;-77
2022/03/25 07:11:00;;;;;;;;;55.75;44.50;;;;;10.14;94.75;102125.72;4988483;28;45574;-78
2022/03/25 07:13:27;;;;;;;;;62.25;47.50;;;;;10.91;94.74;102270.13;4988284;28;45596;-78
2022/03/25 07:15:53;;;;;;;;;59.50;47.50;;;;;10.26;95.24;102168.69;4988850;28;45011;-80
2022/03/25 07:18:18;;;;;;;;;60.50;40.25;;;;;10.09;94.55;102125.03;4989231;28;45000;-79
2022/03/25 07:20:44;;;;;;;;;54.00;44.50;;;;;9.16;99.85;101963.34;4987574;28;45832;-78
2022/03/25 07:23:09;;;;;;;;;62.25;46.25;;;;;10.95;96.09;102259.97;4986854;28;45184;-78
2022/03/25 07:25:34;;;;;;;;;57.75;47.75;;;;;10.95;100.00;102263.59;4986374;28;45218;-77
2022/03/25 07:28:00;;;;;;;;;56.00;45.25;;;;;9.78;100.00;102090.09;4988184;28;45224;-79
2022/03/25 07:30:25;;;;;;;;;61.50;46.00;;;;;10.47;98.33;102185.91;4987849;28;45779;-78
2022/03/25 07:32:51;;;;;;;;;62.50;47.50;;;;;10.96;98.43;102268.06;4987992;28;45364;-76
2022/03/25 07:35:16;;;;;;;;;58.25;47.50;;;;;11.01;98.18;102278.75;4987439;28;45078;-78
2022/03/25 07:37:43;;;;;;;;;61.00;46.25;;;;;10.70;93.99;102225.69;4984325;28;45128;-76
2022/03/25 07:40:15;;;;;;;;;53.50;41.25;;;;;11.00;100.00;102274.25;4983435;28;45886;-77
2022/03/25 07:42:43;;;;;;;;;60.75;48.50;;;;;11.06;93.57;102277.59;4987115;28;45284;-77
2022/03/25 07:45:11;;;;;;;;;59.75;46.50;;;;;11.10;96.18;102287.41;4985650;28;45122;-78
2022/03/25 07:47:41;;;;;;;;;65.00;49.75;;;;;11.09;96.89;102277.44;4986599;28;45031;-77
2022/03/25 07:50:09;;;;;;;;;60.50;48.50;;;;;11.16;92.83;102288.97;4987454;28;46082;-77
2022/03/25 07:52:34;;;;;;;;;62.50;47.50;;;;;11.04;98.77;102281.31;4986269;28;45233;-77
2022/03/25 07:55:00;;;;;;;;;61.00;48.00;;;;;10.87;95.94;102231.25;4987126;28;45040;-77
2022/03/25 07:57:25;;;;;;;;;64.00;49.25;;;;;10.94;95.11;102239.16;4969913;28;45250;-78
2022/03/25 07:59:50;;;;;;;;;63.25;49.50;;;;;10.79;93.31;102208.06;4986860;28;46183;-76
2022/03/25 08:02:16;;;;;;;;;59.75;45.50;;;;;10.94;95.72;102236.44;4987543;28;45157;-77
2022/03/25 08:04:41;;;;;;;;;62.25;48.50;;;;;10.57;90.29;102183.66;4987823;28;45157;-79
2022/03/25 08:07:07;;;;;;;;;61.25;48.00;;;;;11.30;91.78;102297.38;4969874;28;45202;-77
2022/03/25 08:09:33;;;;;;;;;57.50;47.00;;;;;11.31;92.43;102296.44;4986826;28;45226;-81
2022/03/25 08:11:58;;;;;;;;;59.00;46.75;;;;;11.14;100.00;102271.78;4985974;28;45269;-78
2022/03/25 08:14:23;;;;;;;;;62.00;49.50;;;;;11.08;94.19;102243.03;4986767;28;45154;-75
2022/03/25 08:16:49;;;;;;;;;64.25;49.75;;;;;11.27;100.00;102283.91;4973115;28;44924;-76
2022/03/25 08:19:15;;;;;;;;;66.25;51.25;;;;;11.17;98.41;102258.94;4990476;28;46021;-77
2022/03/25 08:21:40;;;;;;;;;64.50;49.00;;;;;11.51;91.19;102302.81;4990184;28;45561;-77
2022/03/25 08:29:36;;;;;;;;;64.00;50.00;;;;;11.01;90.28;102187.13;4990978;28;45066;-76
2022/03/25 08:32:02;;;;;;;;;61.50;47.00;;;;;11.05;91.76;102194.19;4990727;28;45234;-77
2022/03/25 08:34:27;;;;;;;;;61.25;46.50;;;;;11.78;93.63;102295.19;4989884;28;45123;-76
2022/03/25 08:36:53;;;;;;;;;60.50;45.50;;;;;11.82;93.69;102297.72;4990658;28;45200;-76
2022/03/25 08:39:18;;;;;;;;;68.50;48.75;;;;;11.77;87.11;102277.06;4990741;28;46074;-76
2022/03/25 08:41:44;;;;;;;;;67.75;50.00;;;;;11.86;86.31;102280.28;4989259;28;45281;-76
2022/03/25 08:44:10;;;;;;;;;68.25;51.25;;;;;11.56;89.86;102214.47;4990801;28;45140;-77
2022/03/25 08:46:36;;;;;;;;;58.50;46.50;;;;;11.16;93.17;102137.41;4988025;28;45322;-77
2022/03/25 08:49:02;;;;;;;;;59.50;47.50;;;;;12.12;85.84;102302.66;4989880;28;45637;-76
2022/03/25 08:51:28;;;;;;;;;64.75;47.25;;;;;11.83;85.33;102238.66;4990511;28;45066;-75
2022/03/25 08:53:54;;;;;;;;;64.00;50.00;;;;;12.12;84.25;102275.41;4990260;28;44932;-79
2022/03/25 08:56:20;;;;;;;;;64.75;50.25;;;;;12.29;83.49;102299.97;4990965;28;44976;-76
2022/03/25 08:58:45;;;;;;;;;60.75;47.00;;;;;12.37;83.74;102299.63;4990574;28;45142;-75
2022/03/25 09:01:11;;;;;;;;;60.75;48.75;;;;;12.25;82.33;102268.38;4990703;28;45286;-76
2022/03/25 09:03:36;;;;;;;;;68.00;48.25;;;;;12.49;81.79;102299.00;4990613;28;45136;-76
2022/03/25 09:06:03;;;;;;;;;55.75;44.25;;;;;12.10;82.02;102220.06;4989869;28;45922;-76
2022/03/25 09:08:28;;;;;;;;;65.75;49.75;;;;;12.60;81.03;102302.06;4989796;28;45363;-75
2022/03/25 09:10:53;;;;;;;;;59.50;45.50;;;;;12.68;81.83;102304.41;4985749;28;46656;-76
2022/03/25 09:13:19;;;;;;;;;58.50;45.00;;;;;12.62;79.23;102274.69;4988585;28;45185;-76
2022/03/25 09:15:46;;;;;;;;;68.50;52.25;;;;;12.65;73.98;102269.97;4989614;28;45244;-76
2022/03/25 09:18:12;;;;;;;;;69.00;53.50;;;;;12.80;72.21;102289.25;4989579;28;45183;-75
2022/03/25 09:20:38;;;;;;;;;63.50;50.25;;;;;12.48;73.08;102209.06;4989212;28;45406;-75
2022/03/25 09:23:03;;;;;;;;;65.75;48.00;;;;;13.04;70.40;102301.63;4988803;28;45274;-74
2022/03/25 09:25:29;;;;;;;;;66.00;49.25;;;;;12.51;68.96;102193.41;4990215;28;45171;-75
2022/03/25 09:27:54;;;;;;;;;61.50;49.25;;;;;13.19;71.59;102294.47;4989525;28;45484;-75
2022/03/25 09:30:20;;;;;;;;;68.75;53.00;;;;;13.26;70.92;102295.03;4982036;28;44988;-75
2022/03/25 09:32:45;;;;;;;;;61.50;50.00;;;;;12.95;69.71;102232.00;4990214;28;45145;-77
2022/03/25 09:35:11;;;;;;;;;62.00;49.00;;;;;13.23;68.06;102266.94;4990001;28;45165;-76
2022/03/25 09:37:42;;;;;;;;;67.25;51.00;;;;;13.43;65.43;102300.47;4971966;28;47138;-77
2022/03/25 09:40:16;;;;;;;;;66.50;50.50;;;;;13.49;66.18;102297.41;4989902;28;45665;-76
2022/03/25 09:42:42;;;;;;;;;63.50;47.75;;;;;13.49;65.49;102281.91;4989676;28;45216;-75
2022/03/25 09:45:11;;;;;;;;;65.50;52.00;;;;;13.48;64.97;102279.25;4989550;28;45174;-76
2022/03/25 09:47:37;;;;;;;;;58.75;47.50;;;;;13.45;67.66;102254.84;4989606;28;46515;-76
2022/03/25 09:50:06;;;;;;;;;61.50;48.00;;;;;13.37;64.43;102235.25;4989343;28;45130;-76
2022/03/25 09:52:33;;;;;;;;;67.25;50.25;;;;;13.40;67.30;102235.97;4989467;28;45110;-76
2022/03/25 09:54:59;;;;;;;;;64.00;49.75;;;;;13.88;62.98;102307.97;4989614;28;45090;-75
2022/03/25 09:57:28;;;;;;;;;63.75;49.25;;;;;13.30;62.13;102188.28;4989322;28;45186;-75
2022/03/25 09:59:53;;;;;;;;;65.50;50.50;;;;;14.00;63.44;102307.31;4990137;28;45181;-78
2022/03/25 10:02:19;;;;;;;;;65.50;51.00;;;;;13.95;64.20;102278.47;4996288;28;45167;-78
2022/03/25 10:04:46;;;;;;;;;64.50;49.25;;;;;13.54;62.83;102185.16;4997247;28;45027;-76
2022/03/25 10:07:21;;;;;;;;;67.75;51.25;;;;;14.18;61.47;102288.06;4996036;28;45074;-77
2022/03/25 10:10:07;;;;;;;;;69.50;51.00;;;;;13.91;61.10;102242.19;4990410;28;45075;-75
2022/03/25 10:12:32;;;;;;;;;58.75;45.75;;;;;13.80;61.55;102208.25;4991238;28;45169;-76
2022/03/25 10:15:12;;;;;;;;;61.50;50.00;;;;;13.68;61.48;102180.63;4980776;28;45159;-76
2022/03/25 10:17:59;;;;;;;;;71.00;53.00;;;;;14.15;62.80;102250.84;4989575;28;45577;-77
2022/03/25 10:20:24;;;;;;;;;72.25;55.25;;;;;14.44;61.15;102286.53;4972276;28;45285;-81
2022/03/25 10:22:56;;;;;;;;;62.50;49.50;;;;;14.50;62.26;102278.03;4989577;28;45169;-75
2022/03/25 10:25:45;;;;;;;;;64.50;50.50;;;;;14.53;61.58;102280.56;4989070;28;44998;-76
2022/03/25 10:28:26;;;;;;;;;65.75;50.00;;;;;14.58;63.25;102278.44;4989205;28;46008;-79
2022/03/25 10:30:54;;;;;;;;;69.25;49.00;;;;;14.17;63.06;102207.88;4988500;28;45212;-82
2022/03/25 10:33:34;;;;;;;;;60.75;49.50;;;;;14.53;61.11;102265.03;4988807;28;45217;-75
2022/03/25 10:36:07;;;;;;;;;65.50;50.00;;;;;14.75;63.44;102274.69;4989236;28;45062;-75
2022/03/25 10:38:50;;;;;;;;;67.00;50.50;;;;;14.67;59.13;102258.75;4988233;28;45234;-76
2022/03/25 10:41:21;;;;;;;;;64.00;50.25;;;;;14.83;59.47;102268.75;4987427;28;45146;-77
2022/03/25 10:43:55;;;;;;;;;64.50;50.25;;;;;14.86;60.63;102266.72;4988730;28;45124;-78
2022/03/25 10:46:31;;;;;;;;;61.25;48.25;;;;;14.89;64.61;102273.84;4989009;28;45225;-78
2022/03/25 10:48:58;;;;;;;;;69.00;52.50;;;;;14.77;63.76;102251.72;4988315;28;45269;-76
2022/03/25 10:51:24;;;;;;;;;72.50;53.00;;;;;14.83;64.47;102252.34;4968898;28;45118;-80
2022/03/25 10:53:57;;;;;;;;;63.75;49.50;;;;;14.96;60.77;102267.06;4987111;28;45068;-79
2022/03/25 10:56:23;;;;;;;;;63.25;50.00;;;;;14.99;60.96;102286.91;4988448;28;45121;-81
2022/03/25 10:58:56;;;;;;;;;70.00;52.00;;;;;15.04;61.11;102271.06;4990807;28;45396;-76
2022/03/25 11:01:22;;;;;;;;;66.25;51.75;;;;;15.00;60.43;102252.16;4990846;28;45154;-80
2022/03/25 11:03:52;;;;;;;;;67.00;49.75;;;;;14.79;61.35;102210.56;4989198;28;45119;-77
2022/03/25 11:06:20;;;;;;;;;62.00;47.75;;;;;14.98;59.03;102244.06;4988867;28;45313;-78
2022/03/25 11:08:47;;;;;;;;;64.25;48.75;;;;;15.19;65.93;102266.50;4988186;28;45854;-76
2022/03/25 11:11:15;;;;;;;;;58.50;45.25;;;;;14.85;61.17;102202.00;4988213;28;45158;-78
2022/03/25 11:13:43;;;;;;;;;63.00;47.50;;;;;14.50;63.16;102144.81;4988035;28;45011;-83